sensor_id;sensor_type;location;lat;lon;timestamp;pressure;altitude;pressure_sealevel;temperature;humidity
30081;BME280;16902;50.816;12.828;2022-09-13T00:01:57;97503.66;;;8.69;100.00
30081;BME280;16902;50.816;12.828;2022-09-13T00:06:59;97517.00;;;8.66;100.00
30081;BME280;16902;50.816;12.828;2022-09-13T00:12:01;97504.31;;;8.71;100.00
30081;BME280;16902;50.816;12.828;2022-09-13T00:17:03;97493.19;;;8.62;100.00
30081;BME280;16902;50.816;12.828;2022-09-13T00:22:05;97486.25;;;8.55;100.00
30081;BME280;16902;50.816;12.828;2022-09-13T00:27:07;97471.06;;;8.52;100.00
30081;BME280;16902;50.816;12.828;2022-09-13T00:32:09;97468.09;;;8.55;100.00
30081;BME280;16902;50.816;12.828;2022-09-13T00:37:11;97464.50;;;8.56;100.00
30081;BME280;16902;50.816;12.828;2022-09-13T00:42:13;97464.34;;;8.57;100.00
30081;BME280;16902;50.816;12.828;2022-09-13T00:47:24;97456.34;;;8.44;100.00
30081;BME280;16902;50.816;12.828;2022-09-13T00:52:29;97448.91;;;8.41;100.00
30081;BME280;16902;50.816;12.828;2022-09-13T00:57:34;97446.66;;;8.38;100.00
30081;BME280;16902;50.816;12.828;2022-09-13T01:02:43;97444.38;;;8.35;100.00
30081;BME280;16902;50.816;12.828;2022-09-13T01:07:47;97448.38;;;8.45;100.00
30081;BME280;16902;50.816;12.828;2022-09-13T01:12:58;97433.19;;;8.42;100.00
30081;BME280;16902;50.816;12.828;2022-09-13T01:18:03;97436.44;;;8.36;100.00
30081;BME280;16902;50.816;12.828;2022-09-13T01:28:33;97425.47;;;8.26;100.00
30081;BME280;16902;50.816;12.828;2022-09-13T01:39:06;97430.31;;;8.06;100.00
30081;BME280;16902;50.816;12.828;2022-09-13T01:44:38;97413.94;;;8.06;100.00
30081;BME280;16902;50.816;12.828;2022-09-13T02:00:23;97392.66;;;7.87;100.00
30081;BME280;16902;50.816;12.828;2022-09-13T02:05:54;97395.25;;;7.87;100.00
30081;BME280;16902;50.816;12.828;2022-09-13T02:11:02;97400.75;;;7.92;100.00
30081;BME280;16902;50.816;12.828;2022-09-13T02:16:19;97391.19;;;7.93;100.00
30081;BME280;16902;50.816;12.828;2022-09-13T02:21:33;97393.66;;;7.86;100.00
30081;BME280;16902;50.816;12.828;2022-09-13T02:26:39;97387.47;;;7.87;100.00
30081;BME280;16902;50.816;12.828;2022-09-13T02:31:54;97383.75;;;7.90;100.00
30081;BME280;16902;50.816;12.828;2022-09-13T02:36:58;97386.97;;;7.92;100.00
30081;BME280;16902;50.816;12.828;2022-09-13T02:42:14;97376.75;;;7.98;100.00
30081;BME280;16902;50.816;12.828;2022-09-13T03:03:02;97361.34;;;8.20;100.00
30081;BME280;16902;50.816;12.828;2022-09-13T03:08:06;97356.63;;;8.23;100.00
30081;BME280;16902;50.816;12.828;2022-09-13T03:13:27;97350.34;;;8.18;100.00
30081;BME280;16902;50.816;12.828;2022-09-13T03:24:21;97338.75;;;8.06;100.00
30081;BME280;16902;50.816;12.828;2022-09-13T03:29:31;97340.22;;;8.08;100.00
30081;BME280;16902;50.816;12.828;2022-09-13T03:34:42;97323.34;;;8.12;100.00
30081;BME280;16902;50.816;12.828;2022-09-13T03:45:10;97326.72;;;8.13;100.00
30081;BME280;16902;50.816;12.828;2022-09-13T03:50:18;97326.50;;;8.22;100.00
30081;BME280;16902;50.816;12.828;2022-09-13T03:55:21;97333.16;;;8.17;100.00
30081;BME280;16902;50.816;12.828;2022-09-13T04:00:24;97331.91;;;8.13;100.00
30081;BME280;16902;50.816;12.828;2022-09-13T04:05:26;97316.50;;;8.11;100.00
30081;BME280;16902;50.816;12.828;2022-09-13T04:10:28;97338.59;;;8.07;100.00
30081;BME280;16902;50.816;12.828;2022-09-13T04:15:32;97337.63;;;8.08;100.00
30081;BME280;16902;50.816;12.828;2022-09-13T04:20:33;97338.44;;;8.09;100.00
30081;BME280;16902;50.816;12.828;2022-09-13T04:25:39;97344.59;;;8.08;100.00
30081;BME280;16902;50.816;12.828;2022-09-13T04:30:43;97346.34;;;8.07;100.00
30081;BME280;16902;50.816;12.828;2022-09-13T04:35:45;97341.03;;;8.09;100.00
30081;BME280;16902;50.816;12.828;2022-09-13T04:40:52;97331.13;;;8.12;100.00
30081;BME280;16902;50.816;12.828;2022-09-13T04:45:58;97335.75;;;8.17;100.00
30081;BME280;16902;50.816;12.828;2022-09-13T04:51:05;97326.31;;;8.24;100.00
30081;BME280;16902;50.816;12.828;2022-09-13T04:56:06;97313.81;;;8.28;100.00
30081;BME280;16902;50.816;12.828;2022-09-13T05:01:10;97325.25;;;8.33;100.00
30081;BME280;16902;50.816;12.828;2022-09-13T05:06:14;97314.28;;;8.46;100.00
30081;BME280;16902;50.816;12.828;2022-09-13T05:11:21;97319.94;;;8.64;100.00
30081;BME280;16902;50.816;12.828;2022-09-13T05:16:25;97321.47;;;8.88;100.00
30081;BME280;16902;50.816;12.828;2022-09-13T05:21:29;97322.28;;;9.04;100.00
30081;BME280;16902;50.816;12.828;2022-09-13T05:26:31;97319.22;;;9.15;100.00
30081;BME280;16902;50.816;12.828;2022-09-13T05:31:36;97319.13;;;9.23;100.00
30081;BME280;16902;50.816;12.828;2022-09-13T05:36:39;97320.88;;;9.37;100.00
30081;BME280;16902;50.816;12.828;2022-09-13T05:41:42;97319.69;;;9.55;100.00
30081;BME280;16902;50.816;12.828;2022-09-13T05:46:47;97310.09;;;9.76;100.00
30081;BME280;16902;50.816;12.828;2022-09-13T05:51:49;97302.47;;;10.18;100.00
30081;BME280;16902;50.816;12.828;2022-09-13T05:56:51;97301.16;;;10.85;100.00
30081;BME280;16902;50.816;12.828;2022-09-13T06:01:54;97298.81;;;11.51;100.00
30081;BME280;16902;50.816;12.828;2022-09-13T06:06:56;97305.91;;;12.03;100.00
30081;BME280;16902;50.816;12.828;2022-09-13T06:11:58;97301.09;;;12.53;100.00
30081;BME280;16902;50.816;12.828;2022-09-13T06:17:00;97296.31;;;13.22;100.00
30081;BME280;16902;50.816;12.828;2022-09-13T06:22:01;97297.97;;;13.86;100.00
30081;BME280;16902;50.816;12.828;2022-09-13T06:27:03;97300.94;;;14.46;100.00
30081;BME280;16902;50.816;12.828;2022-09-13T06:32:06;97292.56;;;14.81;100.00
30081;BME280;16902;50.816;12.828;2022-09-13T06:37:08;97298.13;;;15.09;100.00
30081;BME280;16902;50.816;12.828;2022-09-13T06:42:09;97299.75;;;15.22;100.00
30081;BME280;16902;50.816;12.828;2022-09-13T06:47:13;97297.13;;;15.22;100.00
30081;BME280;16902;50.816;12.828;2022-09-13T06:52:15;97298.81;;;15.16;100.00
30081;BME280;16902;50.816;12.828;2022-09-13T06:57:17;97296.63;;;15.32;100.00
30081;BME280;16902;50.816;12.828;2022-09-13T07:02:19;97296.28;;;15.58;100.00
30081;BME280;16902;50.816;12.828;2022-09-13T07:07:21;97297.09;;;15.89;100.00
30081;BME280;16902;50.816;12.828;2022-09-13T07:12:22;97293.31;;;15.85;100.00
30081;BME280;16902;50.816;12.828;2022-09-13T07:17:26;97295.59;;;15.81;100.00
30081;BME280;16902;50.816;12.828;2022-09-13T07:22:32;97301.91;;;15.92;100.00
30081;BME280;16902;50.816;12.828;2022-09-13T07:27:33;97302.06;;;16.21;100.00
30081;BME280;16902;50.816;12.828;2022-09-13T07:32:35;97292.81;;;16.53;100.00
30081;BME280;16902;50.816;12.828;2022-09-13T07:37:37;97294.34;;;17.25;100.00
30081;BME280;16902;50.816;12.828;2022-09-13T07:42:39;97297.69;;;17.48;100.00
30081;BME280;16902;50.816;12.828;2022-09-13T07:47:40;97303.75;;;17.49;100.00
30081;BME280;16902;50.816;12.828;2022-09-13T07:52:43;97308.88;;;17.27;100.00
30081;BME280;16902;50.816;12.828;2022-09-13T07:57:44;97301.28;;;17.02;100.00
30081;BME280;16902;50.816;12.828;2022-09-13T08:02:46;97298.41;;;16.92;100.00
30081;BME280;16902;50.816;12.828;2022-09-13T08:07:48;97307.81;;;16.88;100.00
30081;BME280;16902;50.816;12.828;2022-09-13T08:12:50;97319.22;;;16.47;100.00
30081;BME280;16902;50.816;12.828;2022-09-13T08:17:52;97306.78;;;15.88;100.00
30081;BME280;16902;50.816;12.828;2022-09-13T08:22:56;97309.47;;;15.52;100.00
30081;BME280;16902;50.816;12.828;2022-09-13T08:27:58;97317.88;;;15.42;100.00
30081;BME280;16902;50.816;12.828;2022-09-13T08:33:00;97317.56;;;15.50;100.00
30081;BME280;16902;50.816;12.828;2022-09-13T08:38:03;97321.00;;;15.69;100.00
30081;BME280;16902;50.816;12.828;2022-09-13T08:43:10;97316.69;;;16.16;100.00
30081;BME280;16902;50.816;12.828;2022-09-13T08:48:19;97311.34;;;16.93;100.00
30081;BME280;16902;50.816;12.828;2022-09-13T08:53:30;97314.22;;;17.32;100.00
30081;BME280;16902;50.816;12.828;2022-09-13T08:58:43;97307.97;;;17.50;100.00
30081;BME280;16902;50.816;12.828;2022-09-13T09:04:20;97292.59;;;17.42;100.00
30081;BME280;16902;50.816;12.828;2022-09-13T09:09:30;97284.09;;;17.40;100.00
30081;BME280;16902;50.816;12.828;2022-09-13T09:14:37;97281.13;;;18.44;100.00
30081;BME280;16902;50.816;12.828;2022-09-13T09:19:42;97286.31;;;18.72;100.00
30081;BME280;16902;50.816;12.828;2022-09-13T09:24:53;97284.31;;;18.63;100.00
30081;BME280;16902;50.816;12.828;2022-09-13T09:29:56;97289.28;;;18.98;100.00
30081;BME280;16902;50.816;12.828;2022-09-13T09:40:21;97291.25;;;19.57;100.00
30081;BME280;16902;50.816;12.828;2022-09-13T09:50:28;97278.28;;;20.41;100.00
30081;BME280;16902;50.816;12.828;2022-09-13T10:00:35;97257.09;;;21.41;100.00
30081;BME280;16902;50.816;12.828;2022-09-13T10:05:38;97261.94;;;21.95;100.00
30081;BME280;16902;50.816;12.828;2022-09-13T10:10:42;97270.84;;;21.33;100.00
30081;BME280;16902;50.816;12.828;2022-09-13T10:16:00;97266.56;;;20.69;100.00
30081;BME280;16902;50.816;12.828;2022-09-13T10:21:23;97270.34;;;20.41;100.00
30081;BME280;16902;50.816;12.828;2022-09-13T10:26:25;97262.25;;;21.11;100.00
30081;BME280;16902;50.816;12.828;2022-09-13T10:31:32;97252.06;;;21.50;100.00
30081;BME280;16902;50.816;12.828;2022-09-13T10:36:36;97250.41;;;21.28;100.00
30081;BME280;16902;50.816;12.828;2022-09-13T10:42:06;97245.16;;;20.71;100.00
30081;BME280;16902;50.816;12.828;2022-09-13T10:47:18;97245.28;;;20.49;100.00
30081;BME280;16902;50.816;12.828;2022-09-13T10:52:35;97251.22;;;20.66;100.00
30081;BME280;16902;50.816;12.828;2022-09-13T10:57:42;97236.94;;;20.30;100.00
30081;BME280;16902;50.816;12.828;2022-09-13T11:14:16;97222.09;;;21.29;100.00
30081;BME280;16902;50.816;12.828;2022-09-13T11:25:16;97234.47;;;23.02;100.00
30081;BME280;16902;50.816;12.828;2022-09-13T11:30:27;97232.69;;;25.73;100.00
30081;BME280;16902;50.816;12.828;2022-09-13T11:41:17;97232.97;;;24.91;100.00
30081;BME280;16902;50.816;12.828;2022-09-13T11:46:48;97228.50;;;24.33;100.00
30081;BME280;16902;50.816;12.828;2022-09-13T11:52:18;97220.69;;;23.39;100.00
30081;BME280;16902;50.816;12.828;2022-09-13T11:57:37;97212.47;;;22.91;100.00
30081;BME280;16902;50.816;12.828;2022-09-13T12:02:45;97221.91;;;22.32;100.00
30081;BME280;16902;50.816;12.828;2022-09-13T12:13:01;97204.81;;;22.74;100.00
30081;BME280;16902;50.816;12.828;2022-09-13T12:18:18;97199.44;;;23.39;100.00
30081;BME280;16902;50.816;12.828;2022-09-13T12:23:30;97201.47;;;23.13;100.00
30081;BME280;16902;50.816;12.828;2022-09-13T12:28:53;97193.06;;;22.86;100.00
30081;BME280;16902;50.816;12.828;2022-09-13T12:33:57;97182.91;;;23.08;100.00
30081;BME280;16902;50.816;12.828;2022-09-13T12:44:17;97179.34;;;22.73;100.00
30081;BME280;16902;50.816;12.828;2022-09-13T13:06:26;97179.78;;;22.00;100.00
30081;BME280;16902;50.816;12.828;2022-09-13T13:11:42;97161.78;;;21.62;100.00
30081;BME280;16902;50.816;12.828;2022-09-13T13:16:44;97167.06;;;21.82;100.00
30081;BME280;16902;50.816;12.828;2022-09-13T13:21:48;97152.69;;;22.99;100.00
30081;BME280;16902;50.816;12.828;2022-09-13T13:37:04;97160.53;;;27.79;100.00
30081;BME280;16902;50.816;12.828;2022-09-13T13:42:27;97156.41;;;26.51;100.00
30081;BME280;16902;50.816;12.828;2022-09-13T13:52:40;97147.56;;;24.63;100.00
30081;BME280;16902;50.816;12.828;2022-09-13T13:58:02;97146.13;;;22.81;100.00
30081;BME280;16902;50.816;12.828;2022-09-13T14:03:22;97147.13;;;22.30;100.00
30081;BME280;16902;50.816;12.828;2022-09-13T14:24:23;97121.31;;;22.51;100.00
30081;BME280;16902;50.816;12.828;2022-09-13T14:29:25;97106.34;;;22.76;100.00
30081;BME280;16902;50.816;12.828;2022-09-13T14:34:33;97107.84;;;22.97;100.00
30081;BME280;16902;50.816;12.828;2022-09-13T14:39:36;97099.22;;;23.16;100.00
30081;BME280;16902;50.816;12.828;2022-09-13T14:44:43;97101.94;;;23.05;100.00
30081;BME280;16902;50.816;12.828;2022-09-13T14:49:52;97103.25;;;23.08;100.00
30081;BME280;16902;50.816;12.828;2022-09-13T14:55:05;97105.38;;;23.06;100.00
30081;BME280;16902;50.816;12.828;2022-09-13T15:05:17;97095.44;;;23.27;100.00
30081;BME280;16902;50.816;12.828;2022-09-13T15:26:12;97083.88;;;23.07;100.00
30081;BME280;16902;50.816;12.828;2022-09-13T15:36:27;97075.91;;;22.63;100.00
30081;BME280;16902;50.816;12.828;2022-09-13T15:41:32;97072.88;;;22.30;100.00
30081;BME280;16902;50.816;12.828;2022-09-13T15:46:48;97082.97;;;22.08;100.00
30081;BME280;16902;50.816;12.828;2022-09-13T15:51:54;97070.06;;;21.86;100.00
30081;BME280;16902;50.816;12.828;2022-09-13T15:56:57;97068.22;;;21.81;100.00
30081;BME280;16902;50.816;12.828;2022-09-13T16:02:15;97082.50;;;21.80;100.00
30081;BME280;16902;50.816;12.828;2022-09-13T16:07:18;97070.84;;;21.97;100.00
30081;BME280;16902;50.816;12.828;2022-09-13T16:12:20;97076.66;;;21.99;100.00
30081;BME280;16902;50.816;12.828;2022-09-13T16:17:26;97078.56;;;21.83;100.00
30081;BME280;16902;50.816;12.828;2022-09-13T16:22:28;97079.06;;;21.90;100.00
30081;BME280;16902;50.816;12.828;2022-09-13T16:27:30;97076.72;;;21.73;100.00
30081;BME280;16902;50.816;12.828;2022-09-13T16:32:34;97084.69;;;21.53;100.00
30081;BME280;16902;50.816;12.828;2022-09-13T16:37:38;97076.50;;;21.34;100.00
30081;BME280;16902;50.816;12.828;2022-09-13T16:42:40;97074.31;;;21.00;100.00
30081;BME280;16902;50.816;12.828;2022-09-13T16:47:42;97066.84;;;20.67;100.00
30081;BME280;16902;50.816;12.828;2022-09-13T16:52:44;97064.66;;;20.43;100.00
30081;BME280;16902;50.816;12.828;2022-09-13T16:57:46;97061.94;;;20.28;100.00
30081;BME280;16902;50.816;12.828;2022-09-13T17:02:50;97067.41;;;20.11;100.00
30081;BME280;16902;50.816;12.828;2022-09-13T17:07:52;97062.34;;;19.99;100.00
30081;BME280;16902;50.816;12.828;2022-09-13T17:12:54;97062.75;;;19.76;100.00
30081;BME280;16902;50.816;12.828;2022-09-13T17:17:57;97064.94;;;19.52;100.00
30081;BME280;16902;50.816;12.828;2022-09-13T17:22:59;97066.66;;;19.31;100.00
30081;BME280;16902;50.816;12.828;2022-09-13T17:28:01;97067.25;;;18.79;100.00
30081;BME280;16902;50.816;12.828;2022-09-13T17:33:03;97069.84;;;18.08;100.00
30081;BME280;16902;50.816;12.828;2022-09-13T17:38:06;97061.16;;;17.52;100.00
30081;BME280;16902;50.816;12.828;2022-09-13T17:43:08;97064.59;;;17.02;100.00
30081;BME280;16902;50.816;12.828;2022-09-13T17:48:10;97057.63;;;16.67;100.00
30081;BME280;16902;50.816;12.828;2022-09-13T17:53:11;97056.72;;;16.45;100.00
30081;BME280;16902;50.816;12.828;2022-09-13T17:58:14;97049.34;;;16.18;100.00
30081;BME280;16902;50.816;12.828;2022-09-13T18:03:17;97052.50;;;15.92;100.00
30081;BME280;16902;50.816;12.828;2022-09-13T18:08:19;97054.75;;;16.00;100.00
30081;BME280;16902;50.816;12.828;2022-09-13T18:13:21;97056.94;;;15.80;100.00
30081;BME280;16902;50.816;12.828;2022-09-13T18:18:23;97053.63;;;15.49;100.00
30081;BME280;16902;50.816;12.828;2022-09-13T18:23:24;97046.78;;;15.25;100.00
30081;BME280;16902;50.816;12.828;2022-09-13T18:28:29;97042.41;;;15.07;100.00
30081;BME280;16902;50.816;12.828;2022-09-13T18:33:32;97052.19;;;14.88;100.00
30081;BME280;16902;50.816;12.828;2022-09-13T18:38:43;97041.97;;;14.68;100.00
30081;BME280;16902;50.816;12.828;2022-09-13T18:43:47;97038.88;;;14.59;100.00
30081;BME280;16902;50.816;12.828;2022-09-13T18:48:55;97041.81;;;14.51;100.00
30081;BME280;16902;50.816;12.828;2022-09-13T18:53:58;97039.47;;;14.43;100.00
30081;BME280;16902;50.816;12.828;2022-09-13T18:59:05;97045.06;;;14.47;100.00
30081;BME280;16902;50.816;12.828;2022-09-13T19:04:16;97057.66;;;14.38;100.00
30081;BME280;16902;50.816;12.828;2022-09-13T19:09:18;97058.63;;;14.25;100.00
30081;BME280;16902;50.816;12.828;2022-09-13T19:14:24;97042.06;;;14.13;100.00
30081;BME280;16902;50.816;12.828;2022-09-13T19:19:26;97044.09;;;14.11;100.00
30081;BME280;16902;50.816;12.828;2022-09-13T19:24:28;97042.06;;;14.13;100.00
30081;BME280;16902;50.816;12.828;2022-09-13T19:29:30;97046.66;;;14.18;100.00
30081;BME280;16902;50.816;12.828;2022-09-13T19:34:32;97056.00;;;14.07;100.00
30081;BME280;16902;50.816;12.828;2022-09-13T19:39:33;97056.53;;;13.97;100.00
30081;BME280;16902;50.816;12.828;2022-09-13T19:44:35;97057.31;;;14.16;100.00
30081;BME280;16902;50.816;12.828;2022-09-13T19:49:38;97059.78;;;14.11;100.00
30081;BME280;16902;50.816;12.828;2022-09-13T19:54:41;97054.72;;;13.98;100.00
30081;BME280;16902;50.816;12.828;2022-09-13T19:59:42;97053.63;;;13.87;100.00
30081;BME280;16902;50.816;12.828;2022-09-13T20:04:46;97053.13;;;13.78;100.00
30081;BME280;16902;50.816;12.828;2022-09-13T20:09:49;97056.16;;;13.75;100.00
30081;BME280;16902;50.816;12.828;2022-09-13T20:14:51;97061.78;;;13.79;100.00
30081;BME280;16902;50.816;12.828;2022-09-13T20:19:53;97057.34;;;13.79;100.00
30081;BME280;16902;50.816;12.828;2022-09-13T20:24:55;97061.41;;;13.75;100.00
30081;BME280;16902;50.816;12.828;2022-09-13T20:29:58;97063.06;;;13.70;100.00
30081;BME280;16902;50.816;12.828;2022-09-13T20:35:00;97066.78;;;13.80;100.00
30081;BME280;16902;50.816;12.828;2022-09-13T20:40:02;97061.09;;;13.65;100.00
30081;BME280;16902;50.816;12.828;2022-09-13T20:45:05;97057.22;;;13.49;100.00
30081;BME280;16902;50.816;12.828;2022-09-13T20:50:08;97050.88;;;13.38;100.00
30081;BME280;16902;50.816;12.828;2022-09-13T20:55:10;97049.13;;;13.32;100.00
30081;BME280;16902;50.816;12.828;2022-09-13T21:00:12;97048.31;;;13.32;100.00
30081;BME280;16902;50.816;12.828;2022-09-13T21:05:15;97050.13;;;13.31;100.00
30081;BME280;16902;50.816;12.828;2022-09-13T21:10:16;97060.81;;;13.30;100.00
30081;BME280;16902;50.816;12.828;2022-09-13T21:15:19;97061.22;;;13.27;100.00
30081;BME280;16902;50.816;12.828;2022-09-13T21:20:21;97063.84;;;13.27;100.00
30081;BME280;16902;50.816;12.828;2022-09-13T21:25:23;97066.47;;;13.27;100.00
30081;BME280;16902;50.816;12.828;2022-09-13T21:30:26;97053.63;;;13.25;100.00
30081;BME280;16902;50.816;12.828;2022-09-13T21:35:27;97064.66;;;13.27;100.00
30081;BME280;16902;50.816;12.828;2022-09-13T21:40:29;97059.78;;;13.31;100.00
30081;BME280;16902;50.816;12.828;2022-09-13T21:45:31;97061.38;;;13.32;100.00
30081;BME280;16902;50.816;12.828;2022-09-13T21:50:33;97076.38;;;13.43;100.00
30081;BME280;16902;50.816;12.828;2022-09-13T21:55:35;97068.34;;;13.45;100.00
30081;BME280;16902;50.816;12.828;2022-09-13T22:00:40;97072.75;;;13.44;100.00
30081;BME280;16902;50.816;12.828;2022-09-13T22:05:42;97076.00;;;13.40;100.00
30081;BME280;16902;50.816;12.828;2022-09-13T22:10:43;97074.84;;;13.35;100.00
30081;BME280;16902;50.816;12.828;2022-09-13T22:15:45;97073.34;;;13.46;100.00
30081;BME280;16902;50.816;12.828;2022-09-13T22:20:47;97069.94;;;13.46;100.00
30081;BME280;16902;50.816;12.828;2022-09-13T22:25:49;97061.38;;;13.57;100.00
30081;BME280;16902;50.816;12.828;2022-09-13T22:30:52;97061.41;;;13.75;100.00
30081;BME280;16902;50.816;12.828;2022-09-13T22:36:01;97069.75;;;13.66;100.00
30081;BME280;16902;50.816;12.828;2022-09-13T22:41:09;97067.69;;;13.49;100.00
30081;BME280;16902;50.816;12.828;2022-09-13T22:51:21;97056.38;;;13.30;100.00
30081;BME280;16902;50.816;12.828;2022-09-13T22:56:28;97055.22;;;13.20;100.00
30081;BME280;16902;50.816;12.828;2022-09-13T23:01:30;97058.69;;;13.13;100.00
30081;BME280;16902;50.816;12.828;2022-09-13T23:06:33;97059.69;;;13.12;100.00
30081;BME280;16902;50.816;12.828;2022-09-13T23:11:36;97071.34;;;13.17;100.00
30081;BME280;16902;50.816;12.828;2022-09-13T23:16:41;97057.88;;;13.13;100.00
30081;BME280;16902;50.816;12.828;2022-09-13T23:21:44;97053.91;;;13.10;100.00
30081;BME280;16902;50.816;12.828;2022-09-13T23:26:46;97046.47;;;13.07;100.00
30081;BME280;16902;50.816;12.828;2022-09-13T23:31:48;97049.25;;;13.12;100.00
30081;BME280;16902;50.816;12.828;2022-09-13T23:36:51;97055.22;;;13.20;100.00
30081;BME280;16902;50.816;12.828;2022-09-13T23:41:52;97048.00;;;13.22;100.00
30081;BME280;16902;50.816;12.828;2022-09-13T23:46:54;97046.75;;;13.24;100.00
30081;BME280;16902;50.816;12.828;2022-09-13T23:51:56;97044.53;;;13.28;100.00
30081;BME280;16902;50.816;12.828;2022-09-13T23:56:57;97048.63;;;13.42;100.00
